Time;durP1;ratioP1;P1;durP2;ratioP2;P2;SDS_P1;SDS_P2;PMS_P1;PMS_P2;Temp;Humidity;BMP_temperature;BMP_pressure;BME280_temperature;BME280_humidity;BME280_pressure;Samples;Min_cycle;Max_cycle;Signal;HPM_P1;HPM_P2
2023/08/10 00:00:19;;;;;;;5.77;4.50;;;14.80;99.90;;;;;;5089805;28;20467;-65
2023/08/10 00:02:47;;;;;;;5.80;5.30;;;14.60;99.90;;;;;;5088873;28;20474;-66
2023/08/10 00:05:16;;;;;;;5.20;4.70;;;14.60;99.90;;;;;;5089730;28;20505;-65
2023/08/10 00:07:44;;;;;;;5.07;4.57;;;14.60;99.90;;;;;;5090097;28;20444;-65
2023/08/10 00:10:12;;;;;;;4.97;4.57;;;14.50;99.90;;;;;;5089725;28;20987;-66
2023/08/10 00:12:40;;;;;;;4.53;3.93;;;14.50;99.90;;;;;;5088772;28;20443;-66
2023/08/10 00:15:08;;;;;;;4.60;4.20;;;14.50;99.90;;;;;;5089934;28;20467;-65
2023/08/10 00:17:36;;;;;;;4.60;4.20;;;14.40;99.90;;;;;;5090025;28;20970;-65
2023/08/10 00:20:10;;;;;;;4.33;3.97;;;14.40;99.90;;;;;;5089352;28;20532;-66
2023/08/10 00:22:39;;;;;;;4.33;4.03;;;14.30;99.90;;;;;;5088653;28;20509;-65
2023/08/10 00:25:08;;;;;;;4.93;4.10;;;14.40;99.90;;;;;;5089483;28;20500;-66
2023/08/10 00:27:38;;;;;;;4.30;3.90;;;14.40;99.90;;;;;;5093141;28;20520;-66
2023/08/10 00:30:07;;;;;;;4.43;4.03;;;14.40;99.90;;;;;;5093978;28;20432;-66
2023/08/10 00:32:35;;;;;;;4.77;4.40;;;14.40;99.90;;;;;;5092784;28;20457;-65
2023/08/10 00:35:04;;;;;;;4.80;4.40;;;14.30;99.90;;;;;;5093827;28;20462;-66
2023/08/10 00:37:32;;;;;;;5.30;4.30;;;14.20;99.90;;;;;;5092843;28;20469;-66
2023/08/10 00:40:02;;;;;;;5.00;4.40;;;14.10;99.90;;;;;;5093007;28;20524;-66
2023/08/10 00:42:30;;;;;;;4.13;3.83;;;14.10;99.90;;;;;;5092633;28;20447;-66
2023/08/10 00:44:58;;;;;;;5.67;4.77;;;14.10;99.90;;;;;;5093586;28;20495;-66
2023/08/10 00:47:26;;;;;;;4.73;4.20;;;14.10;99.90;;;;;;5093798;28;20445;-65
2023/08/10 00:49:54;;;;;;;7.03;4.47;;;14.00;99.90;;;;;;5093726;28;20469;-66
2023/08/10 00:52:22;;;;;;;5.40;4.80;;;13.80;99.90;;;;;;5092803;28;20434;-65
2023/08/10 00:54:50;;;;;;;4.60;4.20;;;13.70;99.90;;;;;;5092747;28;20465;-65
2023/08/10 00:57:20;;;;;;;5.40;4.90;;;13.70;99.90;;;;;;5093630;28;20434;-66
2023/08/10 00:59:48;;;;;;;5.67;5.17;;;13.60;99.90;;;;;;5093452;28;20862;-66
2023/08/10 01:02:17;;;;;;;5.07;4.63;;;13.50;99.90;;;;;;5092778;28;20935;-65
2023/08/10 01:04:45;;;;;;;4.63;4.23;;;13.60;99.90;;;;;;5092361;28;20454;-66
2023/08/10 01:07:31;;;;;;;4.47;4.00;;;13.60;99.90;;;;;;5093500;28;20442;-66
2023/08/10 01:10:07;;;;;;;6.50;5.00;;;13.60;99.90;;;;;;5092657;28;20538;-66
2023/08/10 01:12:43;;;;;;;6.23;4.70;;;13.50;99.90;;;;;;5091894;28;20534;-65
2023/08/10 01:15:16;;;;;;;5.60;4.90;;;13.50;99.90;;;;;;5092813;28;20525;-66
2023/08/10 01:17:48;;;;;;;4.83;4.43;;;13.40;99.90;;;;;;5093040;28;20571;-65
2023/08/10 01:20:19;;;;;;;5.77;5.20;;;13.20;99.90;;;;;;5093059;28;20824;-65
2023/08/10 01:22:55;;;;;;;6.37;5.80;;;13.10;99.90;;;;;;5091652;28;20478;-67
2023/08/10 01:25:25;;;;;;;6.43;5.40;;;13.20;99.90;;;;;;5092574;28;20881;-66
2023/08/10 01:27:54;;;;;;;5.87;4.80;;;13.20;99.90;;;;;;5093066;28;20432;-66
2023/08/10 01:30:22;;;;;;;5.60;5.10;;;13.10;99.90;;;;;;5092920;28;20537;-66
2023/08/10 01:32:52;;;;;;;5.27;4.40;;;13.00;99.90;;;;;;5091826;28;20440;-66
2023/08/10 01:35:20;;;;;;;9.20;5.67;;;12.90;99.90;;;;;;5092753;28;20473;-66
2023/08/10 01:37:48;;;;;;;6.07;5.47;;;13.00;99.90;;;;;;5091932;28;20470;-66
2023/08/10 01:40:17;;;;;;;6.80;5.30;;;13.00;99.90;;;;;;5092475;28;20442;-66
2023/08/10 01:42:46;;;;;;;6.40;5.90;;;12.90;99.90;;;;;;5090982;28;20454;-66
2023/08/10 01:45:14;;;;;;;7.83;6.30;;;12.80;99.90;;;;;;5092472;28;20983;-66
2023/08/10 01:47:49;;;;;;;6.43;5.93;;;12.80;99.90;;;;;;5092381;28;20491;-66
2023/08/10 01:50:20;;;;;;;7.80;6.20;;;12.70;99.90;;;;;;5092012;28;20457;-66
2023/08/10 01:52:51;;;;;;;6.67;6.07;;;12.80;99.90;;;;;;5091111;28;20470;-66
2023/08/10 01:55:20;;;;;;;7.07;5.83;;;12.70;99.90;;;;;;5092500;28;20481;-65
2023/08/10 01:57:50;;;;;;;6.23;5.57;;;12.70;99.90;;;;;;5092616;28;20499;-65
2023/08/10 02:00:19;;;;;;;6.77;6.17;;;12.70;99.90;;;;;;5092187;28;20449;-66
2023/08/10 02:02:47;;;;;;;6.67;5.53;;;12.80;99.90;;;;;;5089867;28;20553;-65
2023/08/10 02:05:15;;;;;;;5.70;5.13;;;12.90;99.90;;;;;;5091435;28;21015;-66
2023/08/10 02:07:48;;;;;;;6.73;5.90;;;12.80;99.90;;;;;;5092203;28;20881;-66
2023/08/10 02:10:17;;;;;;;6.10;5.50;;;12.80;99.90;;;;;;5092002;28;20460;-66
2023/08/10 02:12:45;;;;;;;6.30;5.70;;;12.80;99.90;;;;;;5090651;28;20438;-66
2023/08/10 02:15:15;;;;;;;7.83;7.03;;;12.70;99.90;;;;;;5091725;28;20489;-66
2023/08/10 02:17:43;;;;;;;8.53;6.57;;;12.70;99.90;;;;;;5091534;28;20446;-66
2023/08/10 02:20:12;;;;;;;6.33;5.70;;;12.60;99.90;;;;;;5091715;28;20936;-66
2023/08/10 02:22:42;;;;;;;8.90;6.33;;;12.70;99.90;;;;;;5090301;28;21087;-64
2023/08/10 02:25:10;;;;;;;6.93;6.30;;;12.60;99.90;;;;;;5091633;28;20466;-65
2023/08/10 02:27:39;;;;;;;5.80;5.30;;;12.50;99.90;;;;;;5091525;28;20816;-66
2023/08/10 02:30:09;;;;;;;5.60;5.00;;;12.50;99.90;;;;;;5091511;28;20853;-65
2023/08/10 02:32:38;;;;;;;5.97;5.43;;;12.60;99.90;;;;;;5090347;28;20437;-66
2023/08/10 02:35:08;;;;;;;7.07;5.97;;;12.60;99.90;;;;;;5091273;28;20591;-66
2023/08/10 02:37:37;;;;;;;5.90;5.20;;;12.60;99.90;;;;;;5091381;28;20482;-65
2023/08/10 02:40:07;;;;;;;6.27;5.67;;;12.50;99.90;;;;;;5091494;28;20904;-66
2023/08/10 02:42:35;;;;;;;6.33;5.73;;;12.50;99.90;;;;;;5090222;28;20564;-67
2023/08/10 02:45:04;;;;;;;5.93;5.40;;;12.40;99.90;;;;;;5091444;28;20458;-66
2023/08/10 02:47:33;;;;;;;7.47;6.80;;;12.30;99.90;;;;;;5091645;28;20547;-64
2023/08/10 02:50:05;;;;;;;9.00;6.93;;;12.20;99.90;;;;;;5090329;28;20444;-67
2023/08/10 02:52:33;;;;;;;7.53;6.83;;;12.10;99.90;;;;;;5090194;28;20507;-66
2023/08/10 02:55:01;;;;;;;7.90;7.20;;;12.10;99.90;;;;;;5090530;28;21047;-65
2023/08/10 02:57:29;;;;;;;8.53;7.47;;;12.10;99.90;;;;;;5091192;28;20453;-65
2023/08/10 02:59:57;;;;;;;9.97;8.47;;;12.10;99.90;;;;;;5091210;28;20481;-65
2023/08/10 03:02:28;;;;;;;14.23;7.87;;;12.10;99.90;;;;;;5090084;28;20502;-64
2023/08/10 03:04:56;;;;;;;9.77;8.87;;;12.00;99.90;;;;;;5091050;28;20455;-65
2023/08/10 03:07:26;;;;;;;10.70;8.40;;;12.00;99.90;;;;;;5091387;28;21149;-65
2023/08/10 03:09:54;;;;;;;8.17;7.37;;;12.10;99.90;;;;;;5090690;28;20963;-65
2023/08/10 03:12:22;;;;;;;9.20;8.30;;;12.10;99.90;;;;;;5090271;28;20489;-63
2023/08/10 03:14:50;;;;;;;12.63;8.43;;;12.20;99.90;;;;;;5090904;28;20556;-65
2023/08/10 03:17:18;;;;;;;8.57;7.67;;;12.20;99.90;;;;;;5091320;28;20438;-65
2023/08/10 03:19:46;;;;;;;8.73;7.90;;;12.20;99.90;;;;;;5090836;28;20508;-64
2023/08/10 03:22:14;;;;;;;8.17;7.30;;;12.30;99.90;;;;;;5090531;28;20992;-65
2023/08/10 03:24:43;;;;;;;6.77;6.17;;;12.30;99.90;;;;;;5090308;28;20458;-64
2023/08/10 03:27:11;;;;;;;7.00;5.97;;;12.30;99.90;;;;;;5090722;28;21027;-64
2023/08/10 03:29:40;;;;;;;7.03;6.43;;;12.40;99.90;;;;;;5090807;28;20437;-65
2023/08/10 03:32:08;;;;;;;8.20;7.40;;;12.40;99.90;;;;;;5090358;28;20944;-64
2023/08/10 03:34:36;;;;;;;7.27;6.57;;;12.30;99.90;;;;;;5089653;28;20459;-64
2023/08/10 03:37:04;;;;;;;6.77;6.13;;;12.30;99.90;;;;;;5090472;28;20498;-64
2023/08/10 03:39:32;;;;;;;6.93;6.23;;;12.20;99.90;;;;;;5090651;28;20434;-63
2023/08/10 03:42:01;;;;;;;6.07;5.57;;;12.10;99.90;;;;;;5090106;28;20882;-65
2023/08/10 03:44:30;;;;;;;7.53;6.67;;;12.00;99.90;;;;;;5088747;28;20473;-65
2023/08/10 03:46:58;;;;;;;7.83;7.20;;;11.90;99.90;;;;;;5090185;28;20447;-66
2023/08/10 03:49:26;;;;;;;8.90;7.10;;;11.90;99.90;;;;;;5090291;28;20484;-66
2023/08/10 03:51:54;;;;;;;8.50;7.70;;;12.00;99.90;;;;;;5089916;28;20447;-65
2023/08/10 03:54:22;;;;;;;7.60;7.00;;;12.00;99.90;;;;;;5068949;28;20474;-66
2023/08/10 03:56:50;;;;;;;8.17;7.47;;;12.00;99.90;;;;;;5069914;28;20468;-66
2023/08/10 03:59:19;;;;;;;8.33;6.67;;;11.90;99.90;;;;;;5069815;28;20450;-66
2023/08/10 04:01:47;;;;;;;8.70;6.60;;;11.90;99.90;;;;;;5069469;28;20514;-66
2023/08/10 04:04:15;;;;;;;7.70;6.90;;;11.90;99.90;;;;;;5071118;28;21286;-66
2023/08/10 04:06:43;;;;;;;8.00;7.20;;;11.90;99.90;;;;;;5090619;28;20445;-66
2023/08/10 04:09:11;;;;;;;8.60;7.80;;;12.00;99.90;;;;;;5090060;28;20450;-66
2023/08/10 04:11:40;;;;;;;8.70;7.90;;;12.10;99.90;;;;;;5090865;28;20469;-66
2023/08/10 04:14:08;;;;;;;8.50;7.70;;;12.30;99.90;;;;;;5089096;28;20461;-66
2023/08/10 04:16:37;;;;;;;6.90;6.30;;;12.40;99.90;;;;;;5090190;28;20478;-66
2023/08/10 04:19:05;;;;;;;8.23;7.33;;;12.50;99.90;;;;;;5090203;28;20448;-67
2023/08/10 04:21:33;;;;;;;7.73;7.00;;;12.30;99.90;;;;;;5089860;28;20451;-66
2023/08/10 04:24:01;;;;;;;8.43;7.63;;;12.20;99.90;;;;;;5088525;28;20535;-66
2023/08/10 04:26:30;;;;;;;9.30;8.40;;;12.20;99.90;;;;;;5089713;28;20540;-66
2023/08/10 04:28:58;;;;;;;7.73;6.93;;;12.20;99.90;;;;;;5089492;28;20968;-66
2023/08/10 04:31:26;;;;;;;7.80;7.10;;;12.30;99.90;;;;;;5089832;28;20441;-66
2023/08/10 04:33:55;;;;;;;9.50;8.10;;;12.20;99.90;;;;;;5088361;28;20438;-66
2023/08/10 04:36:23;;;;;;;10.60;9.30;;;12.20;99.90;;;;;;5089531;28;20973;-66
2023/08/10 04:38:52;;;;;;;11.10;9.50;;;12.20;99.90;;;;;;5089927;28;20447;-66
2023/08/10 04:41:20;;;;;;;8.90;8.10;;;12.30;99.90;;;;;;5089643;28;20446;-66
2023/08/10 04:43:48;;;;;;;8.00;7.20;;;12.60;99.90;;;;;;5088329;28;20477;-67
2023/08/10 04:46:16;;;;;;;9.20;8.33;;;12.70;99.90;;;;;;5089749;28;20472;-64
2023/08/10 04:48:44;;;;;;;13.80;8.47;;;12.80;99.90;;;;;;5089493;28;20814;-66
2023/08/10 04:51:13;;;;;;;9.80;8.90;;;12.90;99.90;;;;;;5089903;28;20469;-66
2023/08/10 04:53:41;;;;;;;9.60;8.70;;;12.90;99.90;;;;;;5087976;28;20471;-67
2023/08/10 04:56:09;;;;;;;8.73;7.83;;;13.00;99.90;;;;;;5089472;28;20955;-66
2023/08/10 04:58:37;;;;;;;9.70;7.70;;;13.10;99.90;;;;;;5089366;28;20932;-67
2023/08/10 05:01:05;;;;;;;8.00;7.20;;;13.00;99.90;;;;;;5089702;28;20449;-67
2023/08/10 05:03:33;;;;;;;8.80;8.00;;;13.00;99.90;;;;;;5086776;28;20563;-67
2023/08/10 05:06:02;;;;;;;8.67;7.80;;;12.90;99.90;;;;;;5088480;28;20472;-65
2023/08/10 05:08:31;;;;;;;10.27;8.00;;;12.80;99.90;;;;;;5089318;28;20471;-67
2023/08/10 05:10:59;;;;;;;10.50;9.50;;;12.80;99.90;;;;;;5088886;28;20456;-64
2023/08/10 05:13:28;;;;;;;7.97;7.17;;;12.80;99.90;;;;;;5089829;28;20589;-65
2023/08/10 05:15:55;;;;;;;10.00;7.73;;;12.90;99.90;;;;;;5092997;28;20508;-64
2023/08/10 05:18:24;;;;;;;7.90;7.20;;;12.90;99.90;;;;;;5093172;28;20445;-64
2023/08/10 05:20:52;;;;;;;8.27;6.93;;;13.00;99.90;;;;;;5093360;28;20543;-65
2023/08/10 05:23:20;;;;;;;7.87;7.20;;;13.00;99.90;;;;;;5092216;28;20478;-67
2023/08/10 05:25:49;;;;;;;8.23;7.07;;;13.10;99.90;;;;;;5093015;28;20527;-66
2023/08/10 05:28:17;;;;;;;7.77;7.03;;;13.20;99.90;;;;;;5093170;28;20452;-66
2023/08/10 05:30:45;;;;;;;7.87;7.03;;;13.00;99.90;;;;;;5092914;28;20526;-66
2023/08/10 05:33:13;;;;;;;8.73;7.97;;;13.10;99.90;;;;;;5091487;28;20450;-66
2023/08/10 05:35:42;;;;;;;8.30;7.60;;;13.20;99.90;;;;;;5092580;28;20523;-66
2023/08/10 05:38:10;;;;;;;6.93;6.23;;;13.30;99.90;;;;;;5092896;28;20449;-64
2023/08/10 05:40:38;;;;;;;7.40;6.80;;;13.40;99.90;;;;;;5092678;28;20488;-66
2023/08/10 05:43:07;;;;;;;8.90;7.10;;;13.30;99.90;;;;;;5090887;28;20469;-66
2023/08/10 05:45:36;;;;;;;9.30;8.43;;;13.40;99.90;;;;;;5092425;28;20523;-65
2023/08/10 05:48:10;;;;;;;7.60;6.97;;;13.50;99.90;;;;;;5092320;28;20453;-67
2023/08/10 05:50:38;;;;;;;7.73;7.03;;;13.60;99.90;;;;;;5092477;28;20476;-66
2023/08/10 05:53:07;;;;;;;7.73;7.00;;;13.80;99.90;;;;;;5091271;28;20472;-66
2023/08/10 05:55:35;;;;;;;7.23;6.73;;;13.90;99.90;;;;;;5091660;28;20458;-66
2023/08/10 05:58:03;;;;;;;8.90;8.20;;;14.10;99.90;;;;;;5091409;28;20450;-66
2023/08/10 06:00:33;;;;;;;7.93;7.20;;;14.30;99.90;;;;;;5088315;28;20455;-66
2023/08/10 06:03:01;;;;;;;6.77;6.17;;;14.50;99.90;;;;;;5086757;28;20913;-67
2023/08/10 06:05:31;;;;;;;5.43;4.97;;;14.80;99.90;;;;;;5079368;28;20922;-66
2023/08/10 06:07:59;;;;;;;6.60;6.00;;;14.90;99.90;;;;;;5075333;28;20476;-67
2023/08/10 06:10:27;;;;;;;6.23;5.70;;;15.10;99.90;;;;;;5091567;28;20448;-67
2023/08/10 06:12:55;;;;;;;5.60;5.20;;;15.40;99.90;;;;;;5090406;28;20796;-66
2023/08/10 06:15:24;;;;;;;8.07;5.60;;;15.60;99.90;;;;;;5089481;28;21177;-67
2023/08/10 06:17:53;;;;;;;5.50;5.00;;;15.70;99.90;;;;;;5088036;28;20458;-65
2023/08/10 06:20:22;;;;;;;6.00;5.40;;;15.70;99.90;;;;;;5093162;28;20903;-64
2023/08/10 06:22:50;;;;;;;6.83;6.13;;;15.80;99.90;;;;;;5089354;28;20497;-64
2023/08/10 06:25:18;;;;;;;6.70;6.07;;;15.80;99.90;;;;;;5077361;28;20478;-65
2023/08/10 06:27:47;;;;;;;6.10;5.50;;;16.00;99.90;;;;;;5081563;28;20442;-66
2023/08/10 06:30:17;;;;;;;5.23;4.80;;;16.20;99.90;;;;;;5087105;28;20545;-67
2023/08/10 06:32:46;;;;;;;4.57;4.17;;;16.30;99.90;;;;;;5089753;28;20442;-67
2023/08/10 06:35:16;;;;;;;5.10;4.70;;;16.20;99.90;;;;;;5081480;28;20446;-65
2023/08/10 06:37:44;;;;;;;5.47;4.67;;;16.20;99.90;;;;;;5088636;28;20870;-63
2023/08/10 06:40:14;;;;;;;6.00;4.93;;;16.40;99.90;;;;;;5091024;28;20555;-65
2023/08/10 06:42:43;;;;;;;5.23;4.67;;;16.70;99.90;;;;;;5077074;28;20538;-65
2023/08/10 06:45:11;;;;;;;5.00;4.60;;;16.80;99.90;;;;;;5091096;28;20521;-65
2023/08/10 06:47:40;;;;;;;5.13;4.63;;;17.00;99.90;;;;;;5091007;28;20521;-64
2023/08/10 06:50:09;;;;;;;5.90;4.93;;;17.10;99.90;;;;;;5087641;28;20453;-65
2023/08/10 06:52:38;;;;;;;5.33;4.83;;;17.30;99.90;;;;;;5077279;28;20526;-65
2023/08/10 06:55:07;;;;;;;5.13;4.53;;;17.40;99.90;;;;;;5070853;28;20540;-65
2023/08/10 06:57:36;;;;;;;5.50;4.90;;;17.40;99.90;;;;;;5070863;28;20447;-64
2023/08/10 07:00:06;;;;;;;4.50;4.10;;;17.50;99.90;;;;;;5070391;28;20446;-65
2023/08/10 07:02:36;;;;;;;4.83;4.43;;;17.50;99.90;;;;;;5069203;28;20889;-67
2023/08/10 07:05:05;;;;;;;5.83;4.77;;;17.60;99.90;;;;;;5070527;28;20493;-67
2023/08/10 07:07:33;;;;;;;4.27;3.97;;;17.60;99.90;;;;;;5087693;28;20500;-65
2023/08/10 07:10:05;;;;;;;5.20;4.47;;;17.70;99.90;;;;;;5090754;28;20460;-67
2023/08/10 07:12:33;;;;;;;4.40;4.00;;;17.90;99.90;;;;;;5090045;28;20446;-66
2023/08/10 07:15:01;;;;;;;4.77;4.37;;;17.90;99.90;;;;;;5090812;28;20458;-67
2023/08/10 07:17:29;;;;;;;5.20;4.60;;;18.00;99.90;;;;;;5090964;28;20442;-67
2023/08/10 07:19:57;;;;;;;7.27;4.30;;;18.10;99.90;;;;;;5091473;28;20538;-66
2023/08/10 07:22:25;;;;;;;4.00;3.70;;;18.20;99.90;;;;;;5089754;28;20872;-66
2023/08/10 07:24:54;;;;;;;4.17;3.87;;;18.30;99.90;;;;;;5090549;28;20563;-66
2023/08/10 07:27:23;;;;;;;4.63;4.10;;;18.60;99.90;;;;;;5090652;28;20446;-65
2023/08/10 07:29:51;;;;;;;5.17;4.37;;;18.90;99.90;;;;;;5090477;28;20507;-66
2023/08/10 07:32:20;;;;;;;4.30;3.90;;;19.00;99.90;;;;;;5089983;28;20453;-66
2023/08/10 07:34:48;;;;;;;4.50;4.10;;;19.10;99.90;;;;;;5090161;28;20889;-66
2023/08/10 07:37:17;;;;;;;4.30;3.90;;;19.30;99.90;;;;;;5089817;28;20449;-66
2023/08/10 07:39:45;;;;;;;4.37;3.60;;;19.60;99.90;;;;;;5090101;28;20485;-65
2023/08/10 07:42:13;;;;;;;4.30;3.90;;;19.70;99.90;;;;;;5090012;28;20434;-65
2023/08/10 07:44:42;;;;;;;4.40;3.70;;;19.60;99.90;;;;;;5089328;28;20903;-66
2023/08/10 07:47:12;;;;;;;4.10;3.80;;;19.50;99.90;;;;;;5090226;28;20452;-66
2023/08/10 07:49:42;;;;;;;2.87;2.67;;;19.60;99.90;;;;;;5090293;28;20442;-66
2023/08/10 07:52:10;;;;;;;3.23;2.93;;;19.50;99.90;;;;;;5089541;28;20442;-65
2023/08/10 07:54:39;;;;;;;3.60;3.30;;;19.60;99.90;;;;;;5089679;28;20985;-66
2023/08/10 07:57:07;;;;;;;3.10;2.90;;;19.90;99.90;;;;;;5089964;28;21009;-65
2023/08/10 07:59:35;;;;;;;2.73;2.53;;;20.20;99.90;;;;;;5090049;28;20444;-65
2023/08/10 08:02:04;;;;;;;3.00;2.80;;;20.20;99.90;;;;;;5089245;28;20424;-66
2023/08/10 08:04:33;;;;;;;3.27;3.07;;;20.40;99.90;;;;;;5089038;28;20488;-65
2023/08/10 08:07:01;;;;;;;4.03;3.07;;;20.40;99.90;;;;;;5090007;28;20438;-66
2023/08/10 08:09:29;;;;;;;3.57;3.27;;;20.50;99.90;;;;;;5089757;28;20849;-66
2023/08/10 08:11:57;;;;;;;3.43;3.20;;;20.60;99.90;;;;;;5089953;28;20450;-66
2023/08/10 08:14:25;;;;;;;3.57;2.87;;;20.60;99.90;;;;;;5088818;28;20519;-66
2023/08/10 08:16:53;;;;;;;3.10;2.80;;;20.70;99.90;;;;;;5089863;28;20446;-66
2023/08/10 08:19:22;;;;;;;4.10;3.70;;;20.80;99.90;;;;;;5089914;28;20823;-66
2023/08/10 08:21:50;;;;;;;4.00;3.10;;;20.90;99.90;;;;;;5089533;28;20442;-66
2023/08/10 08:24:18;;;;;;;3.70;3.40;;;20.80;99.90;;;;;;5088283;28;20478;-66
2023/08/10 08:26:46;;;;;;;4.20;3.80;;;20.90;99.90;;;;;;5090050;28;20473;-67
2023/08/10 08:29:14;;;;;;;4.10;3.57;;;21.00;99.90;;;;;;5089696;28;20472;-66
2023/08/10 08:31:42;;;;;;;3.73;3.10;;;21.10;99.90;;;;;;5089961;28;20450;-66
2023/08/10 08:34:11;;;;;;;4.03;3.63;;;21.10;99.90;;;;;;5088516;28;20458;-66
2023/08/10 08:36:40;;;;;;;3.70;3.00;;;21.00;99.90;;;;;;5089536;28;20446;-66
2023/08/10 08:39:09;;;;;;;7.23;3.27;;;21.10;99.90;;;;;;5089568;28;20533;-66
2023/08/10 08:41:38;;;;;;;3.87;3.53;;;21.00;99.90;;;;;;5089952;28;20537;-66
2023/08/10 08:44:08;;;;;;;3.93;3.23;;;21.00;99.90;;;;;;5088292;28;20550;-66
2023/08/10 08:46:39;;;;;;;3.40;3.10;;;21.10;99.90;;;;;;5089682;28;20442;-66
2023/08/10 08:49:07;;;;;;;4.73;2.97;;;21.00;99.90;;;;;;5093562;28;20588;-66
2023/08/10 08:51:36;;;;;;;3.63;3.33;;;20.90;99.90;;;;;;5093391;28;20446;-66
2023/08/10 08:54:07;;;;;;;3.10;2.77;;;20.80;99.90;;;;;;5092207;28;20514;-66
2023/08/10 08:56:34;;;;;;;3.30;2.93;;;20.80;99.90;;;;;;5093554;28;20481;-66
2023/08/10 08:59:03;;;;;;;3.97;3.10;;;20.90;99.90;;;;;;5093369;28;20499;-66
2023/08/10 09:01:31;;;;;;;3.40;2.97;;;20.70;99.90;;;;;;5093387;28;20794;-67
2023/08/10 09:03:59;;;;;;;3.70;3.40;;;20.70;99.90;;;;;;5091993;28;20528;-66
2023/08/10 09:06:27;;;;;;;3.60;3.30;;;20.90;99.90;;;;;;5092995;28;20513;-67
2023/08/10 09:08:55;;;;;;;3.97;3.50;;;20.90;99.90;;;;;;5093133;28;20614;-66
2023/08/10 09:11:24;;;;;;;3.20;2.70;;;21.00;99.90;;;;;;5093298;28;20936;-67
2023/08/10 09:14:06;;;;;;;3.00;2.80;;;21.00;99.90;;;;;;5091891;28;20507;-66
2023/08/10 09:16:35;;;;;;;5.13;3.50;;;21.00;99.90;;;;;;5093683;28;20434;-66
2023/08/10 09:19:03;;;;;;;3.67;3.37;;;20.90;99.90;;;;;;5093326;28;20441;-66
2023/08/10 09:21:34;;;;;;;3.47;3.10;;;21.00;99.90;;;;;;5093399;28;20442;-66
2023/08/10 09:24:02;;;;;;;3.77;3.40;;;21.20;99.90;;;;;;5091721;28;20456;-66
2023/08/10 09:26:31;;;;;;;3.40;3.20;;;21.20;99.90;;;;;;5092823;28;20478;-67
2023/08/10 09:28:59;;;;;;;3.30;3.10;;;21.30;99.90;;;;;;5092758;28;20936;-66
2023/08/10 09:31:28;;;;;;;3.10;2.90;;;21.40;99.90;;;;;;5092880;28;20944;-67
2023/08/10 09:33:58;;;;;;;3.03;2.83;;;21.60;99.90;;;;;;5091636;28;20438;-67
2023/08/10 09:36:28;;;;;;;3.50;3.13;;;21.60;99.90;;;;;;5092485;28;20450;-66
2023/08/10 09:38:57;;;;;;;3.30;3.10;;;21.60;99.90;;;;;;5091987;28;20446;-66
2023/08/10 09:41:31;;;;;;;3.70;3.40;;;21.80;99.90;;;;;;5092358;28;20447;-67
2023/08/10 09:43:59;;;;;;;4.93;4.60;;;21.90;99.90;;;;;;5091487;28;20442;-67
2023/08/10 09:46:28;;;;;;;2.70;2.50;;;22.10;99.90;;;;;;5092539;28;20486;-66
2023/08/10 09:48:56;;;;;;;3.43;3.13;;;22.50;99.90;;;;;;5092131;28;20525;-67
2023/08/10 09:51:24;;;;;;;3.10;2.90;;;22.90;99.90;;;;;;5091732;28;20829;-65
2023/08/10 09:53:52;;;;;;;3.10;2.80;;;23.40;99.90;;;;;;5090703;28;20454;-66
2023/08/10 09:56:21;;;;;;;3.13;2.93;;;23.90;99.90;;;;;;5092479;28;20517;-65
2023/08/10 09:58:50;;;;;;;4.20;3.37;;;24.20;99.90;;;;;;5091841;28;20477;-66
2023/08/10 10:01:19;;;;;;;3.03;2.73;;;24.50;99.90;;;;;;5092314;28;20442;-65
2023/08/10 10:03:47;;;;;;;3.40;2.80;;;24.80;99.90;;;;;;5090992;28;20453;-65
2023/08/10 10:06:16;;;;;;;3.13;2.90;;;25.20;99.90;;;;;;5091632;28;20522;-65
2023/08/10 10:08:51;;;;;;;2.83;2.63;;;25.50;99.90;;;;;;5091962;28;20445;-64
2023/08/10 10:11:20;;;;;;;3.17;2.97;;;25.90;99.90;;;;;;5092034;28;20466;-65
2023/08/10 10:13:50;;;;;;;2.57;2.37;;;26.10;99.90;;;;;;5090693;28;20489;-66
2023/08/10 10:16:19;;;;;;;4.30;3.40;;;26.20;99.90;;;;;;5091825;28;20446;-65
2023/08/10 10:18:47;;;;;;;3.00;2.80;;;26.80;95.80;;;;;;5091644;28;20450;-65
2023/08/10 10:21:16;;;;;;;4.43;2.97;;;26.60;98.30;;;;;;5091582;28;20450;-65
2023/08/10 10:23:48;;;;;;;2.83;2.60;;;26.60;98.20;;;;;;5090496;28;20450;-65
2023/08/10 10:26:20;;;;;;;3.40;2.63;;;26.70;95.30;;;;;;5091657;28;20560;-65
2023/08/10 10:29:11;;;;;;;2.97;2.77;;;27.10;96.10;;;;;;5091781;28;20480;-65
2023/08/10 10:31:40;;;;;;;2.87;2.53;;;27.50;91.00;;;;;;5092333;28;20441;-66
2023/08/10 10:34:12;;;;;;;3.10;2.80;;;27.30;92.90;;;;;;5090613;28;20465;-67
2023/08/10 10:36:40;;;;;;;2.90;2.70;;;27.30;91.90;;;;;;5091546;28;20442;-65
2023/08/10 10:39:11;;;;;;;2.60;2.37;;;27.10;91.80;;;;;;5091578;28;20453;-66
2023/08/10 10:41:42;;;;;;;3.20;2.53;;;27.10;92.00;;;;;;5091315;28;20448;-66
2023/08/10 10:44:11;;;;;;;2.93;2.50;;;27.30;85.80;;;;;;5090115;28;20936;-67
2023/08/10 10:46:40;;;;;;;3.20;2.83;;;27.50;87.40;;;;;;5091267;28;20983;-66
2023/08/10 10:49:15;;;;;;;3.20;2.90;;;27.70;87.60;;;;;;5091419;28;20430;-66
2023/08/10 10:51:48;;;;;;;6.60;3.07;;;28.00;81.20;;;;;;5091378;28;20469;-66
2023/08/10 10:54:16;;;;;;;3.97;3.30;;;28.00;77.20;;;;;;5089676;28;20474;-66
2023/08/10 10:56:44;;;;;;;2.43;2.30;;;27.90;78.70;;;;;;5091474;28;20449;-67
2023/08/10 10:59:14;;;;;;;2.87;2.67;;;28.00;79.70;;;;;;5091556;28;20541;-66
2023/08/10 11:01:47;;;;;;;5.40;3.00;;;28.10;74.00;;;;;;5091089;28;20474;-66
2023/08/10 11:04:15;;;;;;;3.23;2.47;;;27.80;76.00;;;;;;5089864;28;20829;-67
2023/08/10 11:06:43;;;;;;;3.07;2.67;;;28.00;74.80;;;;;;5091028;28;20847;-66
2023/08/10 11:09:13;;;;;;;2.70;2.50;;;27.10;73.70;;;;;;5090825;28;20943;-66
2023/08/10 11:11:46;;;;;;;3.00;2.70;;;26.90;74.20;;;;;;5090584;28;20442;-66
2023/08/10 11:14:15;;;;;;;3.70;3.00;;;26.90;74.10;;;;;;5089998;28;20458;-65
2023/08/10 11:16:45;;;;;;;3.13;2.70;;;27.30;73.40;;;;;;5090985;28;20433;-67
2023/08/10 11:19:14;;;;;;;2.73;2.53;;;27.10;72.90;;;;;;5090708;28;20474;-67
2023/08/10 11:21:45;;;;;;;3.43;3.13;;;27.30;71.80;;;;;;5090840;28;20585;-66
2023/08/10 11:24:13;;;;;;;3.53;3.23;;;27.60;67.80;;;;;;5089523;28;20486;-67
2023/08/10 11:26:42;;;;;;;3.50;2.83;;;27.30;67.50;;;;;;5090691;28;20947;-66
2023/08/10 11:29:10;;;;;;;3.27;3.00;;;27.40;68.00;;;;;;5090470;28;20495;-66
2023/08/10 11:31:40;;;;;;;3.77;2.97;;;27.70;63.40;;;;;;5090358;28;20533;-66
2023/08/10 11:34:20;;;;;;;2.30;2.10;;;28.00;65.70;;;;;;5089538;28;20461;-66
2023/08/10 11:36:49;;;;;;;2.63;2.43;;;28.50;59.90;;;;;;5090319;28;20442;-66
2023/08/10 11:39:17;;;;;;;3.33;3.00;;;28.90;56.70;;;;;;5090059;28;20507;-65
2023/08/10 11:41:46;;;;;;;2.77;2.57;;;28.70;56.40;;;;;;5090319;28;20529;-66
2023/08/10 11:44:28;;;;;;;2.83;2.60;;;28.40;57.20;;;;;;5088883;28;20458;-66
2023/08/10 11:46:59;;;;;;;2.53;2.33;;;29.00;59.40;;;;;;5090431;28;20505;-66
2023/08/10 11:49:31;;;;;;;2.57;2.37;;;29.50;64.70;;;;;;5090248;28;20944;-66
2023/08/10 11:52:02;;;;;;;3.10;2.60;;;30.20;52.60;;;;;;5089941;28;20503;-66
2023/08/10 11:54:31;;;;;;;3.30;3.00;;;30.30;52.00;;;;;;5088908;28;20458;-66
2023/08/10 11:57:09;;;;;;;2.30;1.87;;;30.50;52.60;;;;;;5090488;28;20442;-66
2023/08/10 11:59:37;;;;;;;3.23;2.93;;;30.90;50.60;;;;;;5090365;28;20441;-67
2023/08/10 12:02:13;;;;;;;3.67;2.70;;;31.00;51.30;;;;;;5089384;28;20484;-65
2023/08/10 12:04:41;;;;;;;2.40;2.20;;;31.20;49.10;;;;;;5089324;28;20828;-65
2023/08/10 12:07:10;;;;;;;2.87;2.60;;;31.30;48.20;;;;;;5089832;28;20470;-66
2023/08/10 12:09:41;;;;;;;2.70;2.30;;;31.30;46.80;;;;;;5089561;28;20487;-66
2023/08/10 12:12:10;;;;;;;2.37;2.17;;;31.40;48.30;;;;;;5089571;28;20819;-67
2023/08/10 12:14:38;;;;;;;2.37;2.07;;;31.60;49.30;;;;;;5088902;28;20984;-66
2023/08/10 12:17:07;;;;;;;3.43;2.77;;;32.10;47.60;;;;;;5089859;28;20495;-66
2023/08/10 12:19:35;;;;;;;4.50;2.87;;;32.30;45.70;;;;;;5089694;28;20438;-66
2023/08/10 12:22:06;;;;;;;3.50;2.20;;;32.40;44.70;;;;;;5089331;28;20844;-66
2023/08/10 12:24:34;;;;;;;2.63;2.30;;;32.90;48.20;;;;;;5088741;28;20470;-66
2023/08/10 12:27:03;;;;;;;2.53;2.33;;;33.30;42.20;;;;;;5089885;28;20482;-66
2023/08/10 12:29:31;;;;;;;2.87;2.67;;;33.80;42.30;;;;;;5089890;28;20496;-66
2023/08/10 12:32:00;;;;;;;2.10;2.00;;;33.40;42.70;;;;;;5089500;28;20439;-66
2023/08/10 12:34:29;;;;;;;4.33;2.70;;;33.40;42.30;;;;;;5088650;28;20462;-66
2023/08/10 12:36:57;;;;;;;2.60;2.40;;;33.20;44.00;;;;;;5089647;28;20933;-66
2023/08/10 12:39:26;;;;;;;2.27;2.10;;;33.10;46.40;;;;;;5089592;28;20456;-67
2023/08/10 12:41:54;;;;;;;3.63;2.90;;;33.70;45.60;;;;;;5089608;28;20445;-66
2023/08/10 12:44:22;;;;;;;3.00;2.40;;;33.80;43.80;;;;;;5088580;28;20522;-66
2023/08/10 12:46:52;;;;;;;2.67;2.47;;;34.10;42.60;;;;;;5089740;28;20542;-66
2023/08/10 12:49:19;;;;;;;2.30;2.10;;;33.80;40.70;;;;;;5089891;28;20444;-66
2023/08/10 12:51:49;;;;;;;2.90;2.23;;;34.10;40.60;;;;;;5090109;28;20446;-67
2023/08/10 12:54:17;;;;;;;2.67;2.47;;;34.20;38.80;;;;;;5088866;28;20988;-66